Main page
METAR-TAF:

METAR-TAF

Airports :

David the Builder Kutaisi International Airport

Kutaisi, Georgia

latitude: 42-10-35N, longitude: 042-28-57E, elevation: 68 m

Current weather observation

The report was made 22 minutes ago, at 23:00 UTC
Wind 2 kt from variable directions
Temperature 12°C
Humidity 94%
Pressure 1024 hPa
Visibility 10 km or more
no clouds below 1500 m and no cumulonimbus

METAR: UGKO 222300Z VRB02KT CAVOK 12/11 Q1024 NOSIG

Time: 03:22 (23:22 UTC)

Forecast

The report was made 6 hours and 22 minutes ago, at 17:00 UTC
Forecast valid from 22 at 18 UTC to 23 at 18 UTC
Wind 6 kt from the East
Visibility 10 km or more
no clouds below 1500 m and no cumulonimbus
Temporary
from 22 at 18 UTC to 22 at 21 UTC
Wind 10 kt from the West/Southwest
Probability 40% :
Temporary
from 22 at 22 UTC to 23 at 04 UTC
Visibility: 0500 m
at a height of 300 ft
fog,

TAF: UGKO 221700Z 2218/2318 09006KT CAVOK TX27/2311Z TN10/2303Z TEMPO 2218/2221 25010KT PROB40 TEMPO 2222/2304 0500 FG VV003

Weather observations and forecasts of more than 4000 airports (METAR and TAF reports).

The available stations are represented by yellow and red dots on the map.

Hover mouse over dot to see the name of the station.

Then click to see weather observations and forecasts.

To change the map : click on the green buttons with a black cross to zoom in, on the green button with a dash to zoom out, or on the green arrows for adjacent maps.


METAR-TAF: